createdAt,value
2018-11-22T00:01:52.493Z,96.60
2018-11-22T00:04:23.286Z,96.50
2018-11-22T00:06:53.942Z,96.50
2018-11-22T00:09:24.769Z,96.20
2018-11-22T00:11:55.585Z,96.30
2018-11-22T00:14:26.387Z,96.10
2018-11-22T00:16:57.277Z,95.70
2018-11-22T00:19:27.984Z,95.70
2018-11-22T00:21:58.736Z,95.80
2018-11-22T00:24:29.688Z,96.00
2018-11-22T00:27:00.493Z,96.00
2018-11-22T00:29:31.484Z,96.10
2018-11-22T00:32:02.300Z,96.20
2018-11-22T00:34:33.076Z,96.10
2018-11-22T00:37:03.908Z,96.20
2018-11-22T00:39:34.736Z,96.20
2018-11-22T00:42:05.594Z,96.30
2018-11-22T00:44:36.217Z,96.30
2018-11-22T00:47:07.004Z,96.30
2018-11-22T00:49:37.842Z,96.20
2018-11-22T00:52:08.682Z,96.40
2018-11-22T00:54:39.720Z,96.30
2018-11-22T00:57:10.510Z,96.40
2018-11-22T00:59:41.350Z,96.60
2018-11-22T01:02:12.218Z,96.90
2018-11-22T01:04:43.001Z,97.10
2018-11-22T01:07:13.728Z,97.20
2018-11-22T01:09:44.634Z,97.20
2018-11-22T01:12:15.567Z,97.40
2018-11-22T01:14:46.328Z,97.60
2018-11-22T01:17:17.248Z,97.80
2018-11-22T01:19:48.061Z,97.60
2018-11-22T01:22:19.013Z,97.50
2018-11-22T01:24:49.746Z,97.80
2018-11-22T01:27:20.420Z,97.50
2018-11-22T01:29:51.205Z,97.60
2018-11-22T01:32:21.949Z,97.60
2018-11-22T01:34:52.638Z,97.60
2018-11-22T01:37:23.617Z,97.70
2018-11-22T01:39:54.476Z,97.60
2018-11-22T01:42:25.253Z,97.70
2018-11-22T01:44:56.109Z,97.70
2018-11-22T01:47:26.933Z,97.70
2018-11-22T01:49:57.794Z,97.70
2018-11-22T01:52:28.664Z,97.70
2018-11-22T01:54:59.425Z,97.70
2018-11-22T01:57:30.176Z,97.70
2018-11-22T02:00:00.938Z,97.70
2018-11-22T02:02:31.610Z,97.70
2018-11-22T02:05:02.503Z,97.70
2018-11-22T02:07:33.406Z,97.70
2018-11-22T02:10:04.379Z,97.70
2018-11-22T02:12:35.172Z,97.60
2018-11-22T02:15:07.090Z,97.50
2018-11-22T02:17:37.910Z,97.50
2018-11-22T02:20:11.362Z,97.40
2018-11-22T02:22:42.594Z,97.70
2018-11-22T02:25:14.429Z,97.40
2018-11-22T02:27:45.444Z,97.40
2018-11-22T02:30:18.429Z,97.40
2018-11-22T02:32:50.582Z,97.40
2018-11-22T02:35:21.717Z,97.40
2018-11-22T02:37:52.516Z,97.40
2018-11-22T02:40:24.120Z,97.40
2018-11-22T02:42:55.816Z,97.30
2018-11-22T02:45:28.185Z,97.30
2018-11-22T02:47:59.074Z,97.20
2018-11-22T02:50:29.879Z,97.20
2018-11-22T02:53:00.772Z,97.20
2018-11-22T02:55:31.448Z,97.20
2018-11-22T02:58:02.283Z,97.30
2018-11-22T03:00:52.638Z,97.30
2018-11-22T03:03:23.409Z,97.20
2018-11-22T03:05:54.174Z,97.20
2018-11-22T03:08:24.968Z,97.20
2018-11-22T03:10:55.873Z,97.20
2018-11-22T03:13:26.718Z,97.40
2018-11-22T03:15:57.646Z,97.40
2018-11-22T03:18:28.433Z,97.40
2018-11-22T03:20:59.292Z,97.50
2018-11-22T03:23:30.171Z,97.30
2018-11-22T03:26:00.980Z,97.30
2018-11-22T03:28:31.565Z,97.40
2018-11-22T03:31:02.358Z,97.60
2018-11-22T03:33:33.057Z,97.40
2018-11-22T03:36:03.901Z,97.40
2018-11-22T03:38:34.864Z,97.40
2018-11-22T03:41:05.782Z,97.40
2018-11-22T03:43:36.612Z,97.30
2018-11-22T03:46:07.478Z,97.30
2018-11-22T03:48:38.244Z,97.20
2018-11-22T03:51:09.105Z,97.20
2018-11-22T03:53:39.913Z,97.20
2018-11-22T03:56:10.711Z,97.20
2018-11-22T03:58:41.418Z,97.20
2018-11-22T04:01:12.194Z,97.20
2018-11-22T04:03:43.114Z,97.10
2018-11-22T04:06:14.033Z,97.10
2018-11-22T04:08:44.999Z,96.90
2018-11-22T04:11:15.799Z,96.90
2018-11-22T04:13:46.849Z,97.10
2018-11-22T04:16:17.501Z,96.90
2018-11-22T04:18:48.336Z,97.00
2018-11-22T04:21:19.273Z,96.90
2018-11-22T04:23:50.210Z,96.80
2018-11-22T04:26:24.109Z,96.70
2018-11-22T04:28:52.599Z,96.70
2018-11-22T04:31:23.440Z,96.70
2018-11-22T04:33:54.224Z,96.70
2018-11-22T04:36:25.157Z,96.80
2018-11-22T04:38:56.090Z,96.80
2018-11-22T04:41:26.941Z,96.80
2018-11-22T04:43:57.817Z,96.80
2018-11-22T04:46:28.546Z,96.70
2018-11-22T04:48:59.240Z,96.80
2018-11-22T04:51:30.669Z,96.80
2018-11-22T04:54:01.693Z,96.80
2018-11-22T04:56:32.564Z,96.80
2018-11-22T04:59:03.353Z,96.70
2018-11-22T05:01:34.189Z,96.80
2018-11-22T05:04:05.015Z,96.80
2018-11-22T05:06:35.954Z,96.80
2018-11-22T05:09:08.573Z,96.80
2018-11-22T05:11:39.365Z,96.70
2018-11-22T05:14:10.156Z,96.80
2018-11-22T05:16:40.941Z,96.80
2018-11-22T05:19:11.605Z,96.90
2018-11-22T05:21:42.362Z,96.90
2018-11-22T05:24:13.340Z,96.90
2018-11-22T05:26:44.276Z,96.90
2018-11-22T05:29:15.152Z,97.00
2018-11-22T05:31:46.042Z,96.90
2018-11-22T05:34:16.930Z,96.80
2018-11-22T05:36:47.882Z,96.90
2018-11-22T05:39:18.658Z,96.60
2018-11-22T05:41:49.497Z,96.60
2018-11-22T05:44:21.369Z,96.60
2018-11-22T05:46:52.090Z,96.60
2018-11-22T05:49:22.789Z,96.50
2018-11-22T05:51:53.524Z,96.60
2018-11-22T05:54:24.515Z,96.60
2018-11-22T05:56:55.330Z,96.60
2018-11-22T05:59:26.780Z,96.70
2018-11-22T06:01:57.690Z,96.70
2018-11-22T06:04:28.544Z,96.70
2018-11-22T06:06:59.412Z,96.70
2018-11-22T06:09:30.314Z,96.70
2018-11-22T06:12:01.105Z,96.60
2018-11-22T06:14:31.952Z,96.60
2018-11-22T06:17:02.916Z,96.60
2018-11-22T06:19:33.733Z,96.70
2018-11-22T06:22:04.456Z,96.70
2018-11-22T06:24:35.330Z,96.70
2018-11-22T06:27:06.369Z,96.80
2018-11-22T06:29:37.659Z,96.80
2018-11-22T06:32:08.478Z,96.90
2018-11-22T06:34:39.241Z,97.00
2018-11-22T06:37:09.969Z,96.90
2018-11-22T06:39:40.799Z,96.90
2018-11-22T06:42:11.549Z,96.80
2018-11-22T06:44:42.353Z,96.80
2018-11-22T06:47:13.273Z,96.80
2018-11-22T06:49:44.045Z,96.80
2018-11-22T06:52:14.885Z,96.90
2018-11-22T06:54:45.809Z,96.90
2018-11-22T06:57:16.662Z,96.90
2018-11-22T06:59:47.486Z,96.90
2018-11-22T07:02:18.358Z,96.90
2018-11-22T07:04:49.327Z,96.80
2018-11-22T07:07:20.044Z,96.80
2018-11-22T07:09:50.962Z,96.70
2018-11-22T07:12:21.782Z,96.80
2018-11-22T07:14:52.624Z,96.70
2018-11-22T07:17:23.729Z,96.50
2018-11-22T07:19:54.486Z,96.30
2018-11-22T07:22:25.253Z,96.50
2018-11-22T07:24:56.115Z,96.80
2018-11-22T07:27:27.053Z,96.70
2018-11-22T07:29:57.944Z,96.70
2018-11-22T07:32:28.855Z,96.60
2018-11-22T07:34:59.601Z,96.70
2018-11-22T07:37:30.468Z,96.80
2018-11-22T07:40:01.869Z,96.70
2018-11-22T07:42:32.888Z,96.90
2018-11-22T07:45:03.686Z,96.70
2018-11-22T07:47:34.562Z,96.60
2018-11-22T07:50:05.473Z,96.50
2018-11-22T07:52:36.269Z,96.50
2018-11-22T07:55:07.928Z,96.90
2018-11-22T07:57:38.944Z,96.50
2018-11-22T08:00:18.162Z,96.30
2018-11-22T08:02:49.450Z,96.20
2018-11-22T08:05:21.229Z,96.10
2018-11-22T08:07:52.129Z,95.90
2018-11-22T08:10:23.297Z,95.90
2018-11-22T08:12:56.029Z,95.70
2018-11-22T08:15:28.682Z,95.60
2018-11-22T08:17:59.494Z,96.50
2018-11-22T08:20:30.522Z,95.80
2018-11-22T08:23:02.659Z,95.90
2018-11-22T08:25:34.163Z,95.90
2018-11-22T08:28:05.160Z,95.90
2018-11-22T08:30:35.990Z,95.70
2018-11-22T08:33:06.737Z,95.90
2018-11-22T08:35:37.493Z,95.50
2018-11-22T08:38:08.486Z,95.60
2018-11-22T08:40:39.166Z,95.90
2018-11-22T08:43:09.996Z,95.40
2018-11-22T08:45:40.786Z,95.80
2018-11-22T08:48:11.611Z,95.50
2018-11-22T08:50:42.462Z,95.70
2018-11-22T08:53:13.373Z,95.70
2018-11-22T08:55:44.182Z,95.40
2018-11-22T08:58:15.005Z,95.60
2018-11-22T09:00:45.916Z,95.00
2018-11-22T09:03:16.788Z,94.80
2018-11-22T09:05:47.501Z,94.70
2018-11-22T09:08:18.289Z,94.60
2018-11-22T09:10:48.965Z,94.00
2018-11-22T09:13:19.799Z,94.00
2018-11-22T09:15:50.512Z,93.90
2018-11-22T09:18:21.332Z,94.30
2018-11-22T09:20:52.280Z,93.50
2018-11-22T09:23:23.411Z,93.40
2018-11-22T09:25:54.249Z,93.90
2018-11-22T09:28:25.113Z,92.90
2018-11-22T09:30:56.026Z,93.20
2018-11-22T09:33:26.844Z,93.40
2018-11-22T09:35:57.694Z,93.80
2018-11-22T09:38:28.522Z,93.60
2018-11-22T09:40:59.299Z,93.20
2018-11-22T09:43:30.302Z,93.00
2018-11-22T09:46:01.055Z,92.90
2018-11-22T09:48:31.754Z,92.20
2018-11-22T09:51:02.470Z,92.70
2018-11-22T09:53:33.256Z,93.10
2018-11-22T09:56:04.173Z,92.60
2018-11-22T09:58:35.025Z,92.80
2018-11-22T10:01:06.188Z,92.50
2018-11-22T10:03:37.033Z,92.80
2018-11-22T10:06:07.782Z,92.20
2018-11-22T10:08:38.610Z,92.10
2018-11-22T10:11:09.516Z,91.60
2018-11-22T12:16:42.246Z,81.00
2018-11-22T12:19:11.783Z,80.80
2018-11-22T12:21:41.358Z,82.20
2018-11-22T12:24:10.956Z,80.50
2018-11-22T12:26:40.538Z,80.20
2018-11-22T12:29:10.075Z,78.20
2018-11-22T12:31:39.553Z,77.50
2018-11-22T12:34:14.818Z,79.30
2018-11-22T12:36:49.468Z,76.40
2018-11-22T12:39:18.963Z,78.90
2018-11-22T12:41:48.299Z,77.80
2018-11-22T12:44:17.914Z,75.90
2018-11-22T12:46:47.534Z,77.30
2018-11-22T12:49:17.074Z,74.60
2018-11-22T12:51:46.537Z,72.50
2018-11-22T12:54:16.253Z,73.70
2018-11-22T12:56:45.783Z,71.30
2018-11-22T12:59:15.213Z,72.50
2018-11-22T13:01:44.886Z,73.60
2018-11-22T13:04:14.326Z,73.10
2018-11-22T13:06:43.803Z,72.90
2018-11-22T13:09:13.291Z,73.50
2018-11-22T13:11:47.615Z,72.80
2018-11-22T13:14:12.690Z,75.80
2018-11-22T13:16:42.260Z,75.30
2018-11-22T13:19:11.909Z,70.20
2018-11-22T13:21:41.438Z,73.10
2018-11-22T13:24:10.975Z,71.90
2018-11-22T13:26:40.621Z,71.00
2018-11-22T13:29:10.074Z,71.20
2018-11-22T13:31:39.566Z,71.70
2018-11-22T13:34:09.064Z,69.80
2018-11-22T13:36:38.639Z,70.90
2018-11-22T13:39:10.835Z,71.20
2018-11-22T13:41:40.419Z,72.00
2018-11-22T13:44:09.943Z,72.50
2018-11-22T13:46:39.331Z,72.30
2018-11-22T13:49:08.822Z,71.00
2018-11-22T13:51:38.323Z,71.60
2018-11-22T13:54:07.937Z,72.90
2018-11-22T13:56:37.451Z,71.20
2018-11-22T13:59:06.961Z,71.90
2018-11-22T14:01:36.486Z,67.50
2018-11-22T14:04:06.350Z,65.90
2018-11-22T14:06:35.868Z,65.20
2018-11-22T14:09:07.120Z,66.80
2018-11-22T14:11:36.716Z,67.10
2018-11-22T14:14:06.670Z,65.90
2018-11-22T14:16:36.095Z,66.70
2018-11-22T14:19:05.543Z,65.00
2018-11-22T14:21:35.040Z,65.40
2018-11-22T14:24:04.490Z,66.10
2018-11-22T14:26:33.964Z,66.10
2018-11-22T14:29:03.461Z,64.80
2018-11-22T14:31:32.996Z,66.30
2018-11-22T14:34:02.414Z,67.30
2018-11-22T14:36:32.029Z,66.90
2018-11-22T14:39:01.694Z,69.20
2018-11-22T14:41:31.215Z,67.00
2018-11-22T14:44:00.712Z,63.20
2018-11-22T14:46:30.191Z,61.80
2018-11-22T14:48:59.752Z,66.00
2018-11-22T14:51:32.980Z,67.20
2018-11-22T14:54:02.515Z,70.30
2018-11-22T14:56:31.882Z,71.50
2018-11-22T14:59:01.291Z,75.40
2018-11-22T15:01:30.759Z,76.40
2018-11-22T15:04:01.809Z,76.60
2018-11-22T15:06:41.370Z,76.90
2018-11-22T15:09:11.722Z,79.80
2018-11-22T15:11:41.463Z,80.50
2018-11-22T15:14:11.038Z,82.10
2018-11-22T15:16:40.644Z,82.60
2018-11-22T15:19:10.154Z,82.60
2018-11-22T15:21:39.743Z,84.10
2018-11-22T15:24:09.267Z,86.30
2018-11-22T15:26:38.678Z,87.10
2018-11-22T15:29:08.370Z,87.20
2018-11-22T15:31:38.508Z,87.20
2018-11-22T15:34:09.129Z,87.50
2018-11-22T15:36:39.139Z,88.70
2018-11-22T15:39:11.553Z,90.00
2018-11-22T15:41:41.703Z,90.10
2018-11-22T15:44:11.163Z,90.40
2018-11-22T15:46:40.570Z,90.60
2018-11-22T15:49:09.981Z,90.50
2018-11-22T15:51:39.740Z,90.80
2018-11-22T15:54:09.275Z,90.90
2018-11-22T15:56:38.659Z,91.10
2018-11-22T15:59:08.303Z,91.00
2018-11-22T16:01:38.180Z,91.10
2018-11-22T16:04:07.759Z,91.30
2018-11-22T16:06:37.482Z,91.20
2018-11-22T16:09:09.346Z,90.90
2018-11-22T16:11:38.941Z,90.70
2018-11-22T16:14:08.497Z,90.70
2018-11-22T16:16:37.915Z,90.80
2018-11-22T16:19:07.896Z,91.00
2018-11-22T16:21:37.491Z,90.70
2018-11-22T16:24:07.091Z,90.50
2018-11-22T16:26:36.806Z,90.80
2018-11-22T16:29:06.463Z,91.10
2018-11-22T16:31:36.034Z,91.30
2018-11-22T16:34:05.758Z,91.50
2018-11-22T16:36:35.519Z,91.80
2018-11-22T16:39:06.369Z,92.20
2018-11-22T16:41:35.869Z,92.40
2018-11-22T16:44:05.626Z,92.20
2018-11-22T16:46:35.089Z,92.10
2018-11-22T16:49:04.838Z,92.30
2018-11-22T16:51:34.370Z,92.40
2018-11-22T16:54:04.035Z,92.60
2018-11-22T16:56:33.613Z,92.90
2018-11-22T16:59:03.048Z,93.10
2018-11-22T17:01:32.431Z,93.00
2018-11-22T17:04:02.234Z,92.60
2018-11-22T17:06:31.742Z,92.70
2018-11-22T17:09:01.266Z,92.60
2018-11-22T17:11:33.301Z,93.00
2018-11-22T17:14:00.463Z,92.60
2018-11-22T17:16:29.967Z,92.30
2018-11-22T17:18:59.405Z,92.60
2018-11-22T17:21:29.096Z,92.60
2018-11-22T17:23:58.587Z,92.70
2018-11-22T17:26:28.095Z,92.70
2018-11-22T17:28:57.685Z,92.60
2018-11-22T17:31:27.274Z,92.80
2018-11-22T17:33:56.924Z,92.80
2018-11-22T17:36:26.346Z,93.00
2018-11-22T17:38:55.887Z,93.10
2018-11-22T17:41:25.436Z,93.00
2018-11-22T17:43:55.136Z,93.00
2018-11-22T17:46:24.942Z,92.70
2018-11-22T17:48:54.475Z,92.40
2018-11-22T17:51:23.942Z,92.50
2018-11-22T17:53:53.545Z,92.60
2018-11-22T17:56:22.841Z,93.00
2018-11-22T17:58:52.414Z,93.00
2018-11-22T18:01:21.898Z,92.40
2018-11-22T18:03:51.434Z,92.20
2018-11-22T18:06:20.946Z,92.80
2018-11-22T18:08:50.500Z,93.20
2018-11-22T18:11:20.019Z,92.70
2018-11-22T18:13:50.006Z,93.00
2018-11-22T18:16:19.516Z,93.20
2018-11-22T18:18:49.007Z,93.00
2018-11-22T18:21:18.596Z,93.00
2018-11-22T18:23:48.042Z,93.20
2018-11-22T18:26:17.532Z,93.30
2018-11-22T18:28:46.990Z,93.30
2018-11-22T18:31:16.642Z,93.10
2018-11-22T18:33:46.129Z,93.30
2018-11-22T18:36:15.660Z,93.10
2018-11-22T18:38:45.181Z,93.50
2018-11-22T18:41:14.627Z,93.40
2018-11-22T18:43:45.662Z,93.50
2018-11-22T18:46:15.209Z,93.30
2018-11-22T18:48:46.618Z,93.30
2018-11-22T18:51:16.064Z,93.20
2018-11-22T18:53:45.467Z,93.30
2018-11-22T18:56:14.854Z,93.20
2018-11-22T18:58:44.299Z,93.20
2018-11-22T19:01:13.960Z,93.20
2018-11-22T19:03:43.398Z,93.40
2018-11-22T19:06:13.612Z,93.50
2018-11-22T19:08:43.211Z,93.40
2018-11-22T19:11:12.902Z,93.20
2018-11-22T19:13:42.486Z,93.30
2018-11-22T19:16:12.142Z,93.30
2018-11-22T19:18:41.662Z,93.50
2018-11-22T19:21:11.217Z,93.60
2018-11-22T19:23:40.631Z,93.80
2018-11-22T19:26:11.238Z,93.50
2018-11-22T19:28:40.798Z,93.50
2018-11-22T19:31:10.944Z,93.70
2018-11-22T19:33:40.411Z,93.70
2018-11-22T19:36:09.823Z,94.00
2018-11-22T19:38:39.438Z,94.00
2018-11-22T19:41:09.000Z,94.00
2018-11-22T19:43:38.436Z,93.90
2018-11-22T19:46:07.911Z,93.80
2018-11-22T19:48:37.424Z,93.90
2018-11-22T19:51:06.899Z,93.80
2018-11-22T19:53:36.530Z,94.00
2018-11-22T19:56:06.369Z,94.30
2018-11-22T19:58:35.916Z,94.20
2018-11-22T20:01:07.752Z,94.20
2018-11-22T20:03:34.896Z,94.30
2018-11-22T20:06:04.535Z,94.10
2018-11-22T20:08:34.062Z,94.00
2018-11-22T20:11:03.689Z,94.10
2018-11-22T20:13:34.094Z,94.00
2018-11-22T20:16:03.683Z,93.90
2018-11-22T20:18:34.623Z,94.10
2018-11-22T20:21:04.246Z,94.10
2018-11-22T20:23:33.629Z,94.10
2018-11-22T20:26:03.048Z,94.20
2018-11-22T20:28:32.527Z,94.50
2018-11-22T20:31:02.041Z,94.50
2018-11-22T20:33:31.567Z,94.60
2018-11-22T20:36:01.093Z,94.60
2018-11-22T20:38:30.662Z,94.40
2018-11-22T20:41:00.206Z,94.20
2018-11-22T20:43:29.894Z,94.20
2018-11-22T20:45:59.372Z,94.20
2018-11-22T20:48:29.002Z,94.10
2018-11-22T20:50:59.087Z,94.20
2018-11-22T20:53:28.695Z,94.40
2018-11-22T20:55:58.285Z,94.60
2018-11-22T20:58:28.585Z,94.70
2018-11-22T21:00:57.960Z,94.80
2018-11-22T21:03:27.778Z,94.80
2018-11-22T21:05:57.985Z,94.80
2018-11-22T21:08:27.479Z,94.70
2018-11-22T21:10:57.069Z,94.70
2018-11-22T21:13:27.603Z,94.80
2018-11-22T21:15:57.125Z,94.90
2018-11-22T21:18:26.634Z,95.00
2018-11-22T21:20:56.124Z,95.00
2018-11-22T21:23:25.614Z,95.00
2018-11-22T21:25:55.542Z,95.00
2018-11-22T21:28:25.248Z,94.90
2018-11-22T21:30:54.775Z,94.90
2018-11-22T21:33:24.450Z,94.70
2018-11-22T21:35:53.966Z,94.70
2018-11-22T21:38:23.487Z,94.90
2018-11-22T21:40:52.984Z,94.90
2018-11-22T21:43:22.574Z,95.00
2018-11-22T21:45:52.011Z,95.10
2018-11-22T21:48:21.517Z,95.10
2018-11-22T21:50:51.140Z,94.90
2018-11-22T21:53:20.590Z,94.80
2018-11-22T21:55:50.127Z,94.80
2018-11-22T21:58:19.659Z,95.00
2018-11-22T22:00:49.227Z,95.10
2018-11-22T22:03:18.754Z,95.10
2018-11-22T22:05:49.105Z,95.10
2018-11-22T22:08:18.566Z,94.80
2018-11-22T22:10:47.988Z,94.90
2018-11-22T22:13:17.371Z,94.80
2018-11-22T22:15:46.803Z,94.70
2018-11-22T22:18:21.187Z,94.80
2018-11-22T22:20:45.973Z,94.80
2018-11-22T22:23:15.494Z,94.80
2018-11-22T22:25:44.977Z,94.80
2018-11-22T22:28:14.479Z,94.80
2018-11-22T22:30:43.891Z,94.80
2018-11-22T22:33:13.679Z,94.80
2018-11-22T22:35:43.303Z,94.70
2018-11-22T22:38:12.720Z,94.70
2018-11-22T22:40:42.128Z,94.80
2018-11-22T22:43:11.896Z,94.70
2018-11-22T22:45:41.454Z,94.60
2018-11-22T22:48:10.931Z,94.60
2018-11-22T22:50:40.337Z,94.80
2018-11-22T22:53:10.358Z,95.00
2018-11-22T22:55:39.859Z,94.90
2018-11-22T22:58:09.447Z,95.00
2018-11-22T23:00:45.091Z,95.10
2018-11-22T23:03:14.658Z,95.10
2018-11-22T23:05:44.291Z,95.10
2018-11-22T23:08:13.819Z,95.00
2018-11-22T23:10:43.353Z,94.80
2018-11-22T23:13:13.189Z,94.80
2018-11-22T23:15:42.755Z,95.10
2018-11-22T23:18:12.158Z,94.90
2018-11-22T23:20:41.566Z,95.10
2018-11-22T23:23:11.057Z,95.00
2018-11-22T23:25:40.551Z,94.80
2018-11-22T23:28:09.973Z,94.90
2018-11-22T23:30:39.367Z,94.90
2018-11-22T23:33:09.447Z,95.00
2018-11-22T23:35:38.859Z,95.00
2018-11-22T23:38:08.294Z,95.00
2018-11-22T23:40:37.734Z,95.00
2018-11-22T23:43:07.274Z,95.30
2018-11-22T23:45:36.819Z,95.30
2018-11-22T23:48:06.208Z,95.20
2018-11-22T23:50:35.650Z,95.10
2018-11-22T23:53:05.611Z,95.10
2018-11-22T23:55:35.243Z,95.10
2018-11-22T23:58:04.674Z,95.10
